Aeroporto :







RITROVATECI SU...

 
LOGIN :

Iscrizione | Disclaimer

   EN    FR    IT 

 









Sommario :    VFR   VFR Marginale   IFR   IFR Intensivo   IFR Molto Intensivo
Visibilità : 
Base nubi : 
>= 8 km
>= 3000ft
5 / 8 km
1000 / 3000 ft
1500m / 5 km
500 / 1000 ft
800 / 1500m
200 / 500 ft
< 800m
< 200 ft
Simboli :   Temporali  Nebbia  Neve Forte  Precipitazioni Forti  Vento > 20 kt






- Altitudine del aeroporto : 792 ft
- Codice IATA : YSC


CYSC - Sherbrooke

ULTIMO METAR :
  • 262346Z AUTO 22004KT 190V250 2SM -SN BKN004 OVC013 00/M00 A2953 RMK ICG PAST HR SLP011

METARs OBSOLETI :
  • 262344Z AUTO 22006KT 2SM -SN BKN004 OVC013 00/M00 A2953 RMK ICG INTMT SLP011
  • 262312Z AUTO 21006KT 2SM -SN BKN004 OVC011 00/M00 A2953 RMK ICG SLP012
  • 262256Z AUTO 21005KT 1 3/4SM -SN BKN004 BKN008 OVC011 00/M00 A2954 RMK ICG SLP013
  • 262232Z AUTO 22005KT 2 1/2SM -SN BKN004 OVC013 00/M00 A2954 RMK VIS VRB 2-3 ICG SLP014
  • 262221Z AUTO 22005KT 3SM -SN SCT004 BKN008 OVC013 00/M00 A2954 RMK ICG SLP015
  • 262216Z AUTO 22005KT 3SM -SN SCT004 OVC013 00/M00 A2954 RMK ICG SLP015
  • 262200Z AUTO 22005KT 2SM -SN SCT004 OVC010 00/00 A2954 RMK ICG SLP015
  • 262157Z AUTO 23005KT 1 3/4SM -SN SCT004 OVC010 00/M00 A2954 RMK ICG SLP014
  • 262143Z AUTO 23005KT 1 3/4SM -SN BKN004 OVC008 00/M00 A2954 RMK ICG SLP014
  • 262125Z AUTO 22005KT 1 1/4SM -SN BKN004 OVC008 00/00 A2954 RMK SLP014

TAF TAF CYSC
Valido dal 27 a 00 ore il 27 a 03 ore UTC


262338Z 2700/2703 23008KT 1SM -SN BKN004 OVC012
TEMPO 2700/2703 6SM -SN OVC010
PROB40 2700/2703 3/4SM -SN VV008 RMK FCST BASED ON AUTO OBS. NXT FCST WILL BE ISSUED AT 271045Z



MetMap, La meteo Aeronautica in un colpo d'occhio ! - Copyright ORBIFLY Dicembre 2007 - Disclaimer

ORBIFLY MET'MAP TEAM :

Programmazione e sviluppo : Alexandra Zaïnal
Concezione : Baudouin d'Aumeries
Aiuto per la programmazione : Marc-Olivier Méhu
Supporto tecnico e logistico : Manuel Goepfert
Aiuto per la traduzione : Arnaldo La Scala

Contatto : metmap@orbifly.com




FONTI E CREDITI :

   NOAA